sensor_id;sensor_type;location;lat;lon;timestamp;temperature;humidity
5466;DHT22;2755;50.728;7.108;2023-07-29T00:01:42;19.00;99.90
5466;DHT22;2755;50.728;7.108;2023-07-29T00:06:36;18.80;99.90
5466;DHT22;2755;50.728;7.108;2023-07-29T00:09:02;17.90;99.90
5466;DHT22;2755;50.728;7.108;2023-07-29T00:11:28;18.20;99.90
5466;DHT22;2755;50.728;7.108;2023-07-29T00:13:54;18.80;99.90
5466;DHT22;2755;50.728;7.108;2023-07-29T00:16:19;18.90;99.90
5466;DHT22;2755;50.728;7.108;2023-07-29T00:18:48;18.80;99.90
5466;DHT22;2755;50.728;7.108;2023-07-29T00:21:13;19.10;99.90
5466;DHT22;2755;50.728;7.108;2023-07-29T00:23:39;18.80;99.90
5466;DHT22;2755;50.728;7.108;2023-07-29T00:26:04;18.80;99.90
5466;DHT22;2755;50.728;7.108;2023-07-29T00:28:30;18.50;99.90
5466;DHT22;2755;50.728;7.108;2023-07-29T00:30:55;18.50;99.90
5466;DHT22;2755;50.728;7.108;2023-07-29T00:33:21;18.50;99.90
5466;DHT22;2755;50.728;7.108;2023-07-29T00:35:47;18.90;99.90
5466;DHT22;2755;50.728;7.108;2023-07-29T00:38:12;18.70;99.90
5466;DHT22;2755;50.728;7.108;2023-07-29T00:40:39;19.50;99.90
5466;DHT22;2755;50.728;7.108;2023-07-29T00:43:05;18.60;99.90
5466;DHT22;2755;50.728;7.108;2023-07-29T00:45:32;18.50;99.90
5466;DHT22;2755;50.728;7.108;2023-07-29T00:50:24;18.60;99.90
5466;DHT22;2755;50.728;7.108;2023-07-29T00:52:50;18.70;99.90
5466;DHT22;2755;50.728;7.108;2023-07-29T00:57:42;18.10;99.90
5466;DHT22;2755;50.728;7.108;2023-07-29T01:02:35;18.90;99.90
5466;DHT22;2755;50.728;7.108;2023-07-29T01:07:36;18.70;99.90
5466;DHT22;2755;50.728;7.108;2023-07-29T01:13:02;18.80;99.90
5466;DHT22;2755;50.728;7.108;2023-07-29T01:15:46;18.80;99.90
5466;DHT22;2755;50.728;7.108;2023-07-29T01:18:20;18.90;99.90
5466;DHT22;2755;50.728;7.108;2023-07-29T01:20:47;18.90;99.90
5466;DHT22;2755;50.728;7.108;2023-07-29T01:23:15;18.80;99.90
5466;DHT22;2755;50.728;7.108;2023-07-29T01:28:07;19.00;99.90
5466;DHT22;2755;50.728;7.108;2023-07-29T01:30:39;19.20;99.90
5466;DHT22;2755;50.728;7.108;2023-07-29T01:36:02;18.90;99.90
5466;DHT22;2755;50.728;7.108;2023-07-29T01:38:32;19.30;99.90
5466;DHT22;2755;50.728;7.108;2023-07-29T01:41:01;18.80;99.90
5466;DHT22;2755;50.728;7.108;2023-07-29T01:43:31;19.00;99.90
5466;DHT22;2755;50.728;7.108;2023-07-29T01:45:57;18.90;99.90
5466;DHT22;2755;50.728;7.108;2023-07-29T01:48:22;18.50;99.90
5466;DHT22;2755;50.728;7.108;2023-07-29T01:53:14;20.40;99.90
5466;DHT22;2755;50.728;7.108;2023-07-29T01:55:41;18.10;99.90
5466;DHT22;2755;50.728;7.108;2023-07-29T01:58:06;19.50;99.90
5466;DHT22;2755;50.728;7.108;2023-07-29T02:02:58;18.90;99.90
5466;DHT22;2755;50.728;7.108;2023-07-29T02:07:49;18.90;99.90
5466;DHT22;2755;50.728;7.108;2023-07-29T02:10:15;19.10;99.90
5466;DHT22;2755;50.728;7.108;2023-07-29T02:12:41;19.00;99.90
5466;DHT22;2755;50.728;7.108;2023-07-29T02:15:07;18.00;99.90
5466;DHT22;2755;50.728;7.108;2023-07-29T02:17:32;18.90;99.90
5466;DHT22;2755;50.728;7.108;2023-07-29T02:19:58;19.10;99.90
5466;DHT22;2755;50.728;7.108;2023-07-29T02:22:23;18.50;99.90
5466;DHT22;2755;50.728;7.108;2023-07-29T02:27:15;19.20;99.90
5466;DHT22;2755;50.728;7.108;2023-07-29T02:29:40;19.20;99.90
5466;DHT22;2755;50.728;7.108;2023-07-29T02:32:06;17.90;99.90
5466;DHT22;2755;50.728;7.108;2023-07-29T02:34:32;19.20;99.90
5466;DHT22;2755;50.728;7.108;2023-07-29T02:36:57;19.60;99.90
5466;DHT22;2755;50.728;7.108;2023-07-29T02:39:23;19.40;99.90
5466;DHT22;2755;50.728;7.108;2023-07-29T02:41:49;19.20;99.90
5466;DHT22;2755;50.728;7.108;2023-07-29T02:44:15;21.10;99.90
5466;DHT22;2755;50.728;7.108;2023-07-29T02:46:41;19.70;99.90
5466;DHT22;2755;50.728;7.108;2023-07-29T02:49:06;18.70;99.90
5466;DHT22;2755;50.728;7.108;2023-07-29T02:56:24;18.70;99.90
5466;DHT22;2755;50.728;7.108;2023-07-29T02:58:49;18.90;99.90
5466;DHT22;2755;50.728;7.108;2023-07-29T03:06:11;18.90;99.90
5466;DHT22;2755;50.728;7.108;2023-07-29T03:08:37;19.00;99.90
5466;DHT22;2755;50.728;7.108;2023-07-29T03:11:14;19.00;99.90
5466;DHT22;2755;50.728;7.108;2023-07-29T03:13:39;19.00;99.90
5466;DHT22;2755;50.728;7.108;2023-07-29T03:18:34;18.50;99.90
5466;DHT22;2755;50.728;7.108;2023-07-29T03:21:00;18.60;99.90
5466;DHT22;2755;50.728;7.108;2023-07-29T03:23:27;17.30;99.90
5466;DHT22;2755;50.728;7.108;2023-07-29T03:25:57;18.40;99.90
5466;DHT22;2755;50.728;7.108;2023-07-29T03:28:31;18.20;99.90
5466;DHT22;2755;50.728;7.108;2023-07-29T03:30:57;18.20;99.90
5466;DHT22;2755;50.728;7.108;2023-07-29T03:33:24;18.50;99.90
5466;DHT22;2755;50.728;7.108;2023-07-29T03:35:50;18.00;99.90
5466;DHT22;2755;50.728;7.108;2023-07-29T03:40:42;18.80;99.90
5466;DHT22;2755;50.728;7.108;2023-07-29T03:43:08;18.60;99.90
5466;DHT22;2755;50.728;7.108;2023-07-29T03:45:35;18.10;99.90
5466;DHT22;2755;50.728;7.108;2023-07-29T03:48:00;18.10;99.90
5466;DHT22;2755;50.728;7.108;2023-07-29T03:50:28;17.60;99.90
5466;DHT22;2755;50.728;7.108;2023-07-29T03:55:23;17.30;99.90
5466;DHT22;2755;50.728;7.108;2023-07-29T03:57:49;18.30;99.90
5466;DHT22;2755;50.728;7.108;2023-07-29T04:00:14;17.40;99.90
5466;DHT22;2755;50.728;7.108;2023-07-29T04:02:41;17.80;99.90
5466;DHT22;2755;50.728;7.108;2023-07-29T04:05:07;17.30;99.90
5466;DHT22;2755;50.728;7.108;2023-07-29T04:07:35;17.80;99.90
5466;DHT22;2755;50.728;7.108;2023-07-29T04:10:01;17.90;99.90
5466;DHT22;2755;50.728;7.108;2023-07-29T04:12:28;17.20;99.90
5466;DHT22;2755;50.728;7.108;2023-07-29T04:14:53;17.70;99.90
5466;DHT22;2755;50.728;7.108;2023-07-29T04:17:19;17.60;99.90
5466;DHT22;2755;50.728;7.108;2023-07-29T04:19:44;17.20;99.90
5466;DHT22;2755;50.728;7.108;2023-07-29T04:27:05;17.60;99.90
5466;DHT22;2755;50.728;7.108;2023-07-29T04:29:31;17.90;99.90
5466;DHT22;2755;50.728;7.108;2023-07-29T04:31:57;17.90;99.90
5466;DHT22;2755;50.728;7.108;2023-07-29T04:34:22;17.60;99.90
5466;DHT22;2755;50.728;7.108;2023-07-29T04:36:48;17.80;99.90
5466;DHT22;2755;50.728;7.108;2023-07-29T04:39:14;17.70;99.90
5466;DHT22;2755;50.728;7.108;2023-07-29T04:46:32;17.20;99.90
5466;DHT22;2755;50.728;7.108;2023-07-29T04:48:58;18.00;99.90
5466;DHT22;2755;50.728;7.108;2023-07-29T04:51:24;17.70;99.90
5466;DHT22;2755;50.728;7.108;2023-07-29T04:53:50;16.70;99.90
5466;DHT22;2755;50.728;7.108;2023-07-29T04:58:41;17.60;99.90
5466;DHT22;2755;50.728;7.108;2023-07-29T05:01:07;17.70;99.90
5466;DHT22;2755;50.728;7.108;2023-07-29T05:03:36;18.00;99.90
5466;DHT22;2755;50.728;7.108;2023-07-29T05:06:02;18.20;99.90
5466;DHT22;2755;50.728;7.108;2023-07-29T05:08:28;18.10;99.90
5466;DHT22;2755;50.728;7.108;2023-07-29T05:10:54;18.10;99.90
5466;DHT22;2755;50.728;7.108;2023-07-29T05:13:21;18.10;99.90
5466;DHT22;2755;50.728;7.108;2023-07-29T05:15:48;18.10;99.90
5466;DHT22;2755;50.728;7.108;2023-07-29T05:23:05;17.50;99.90
5466;DHT22;2755;50.728;7.108;2023-07-29T05:25:31;17.90;99.90
5466;DHT22;2755;50.728;7.108;2023-07-29T05:30:23;18.30;99.90
5466;DHT22;2755;50.728;7.108;2023-07-29T05:37:41;18.10;99.90
5466;DHT22;2755;50.728;7.108;2023-07-29T05:40:07;18.40;99.90
5466;DHT22;2755;50.728;7.108;2023-07-29T05:45:00;18.60;99.90
5466;DHT22;2755;50.728;7.108;2023-07-29T05:47:25;18.50;99.90
5466;DHT22;2755;50.728;7.108;2023-07-29T05:49:51;17.90;99.90
5466;DHT22;2755;50.728;7.108;2023-07-29T05:54:43;18.20;99.90
5466;DHT22;2755;50.728;7.108;2023-07-29T05:57:09;18.40;99.90
5466;DHT22;2755;50.728;7.108;2023-07-29T05:59:35;18.70;99.90
5466;DHT22;2755;50.728;7.108;2023-07-29T06:02:01;18.30;99.90
5466;DHT22;2755;50.728;7.108;2023-07-29T06:04:26;18.20;99.90
5466;DHT22;2755;50.728;7.108;2023-07-29T06:06:52;18.30;99.90
5466;DHT22;2755;50.728;7.108;2023-07-29T06:09:18;18.60;99.90
5466;DHT22;2755;50.728;7.108;2023-07-29T06:11:43;18.20;99.90
5466;DHT22;2755;50.728;7.108;2023-07-29T06:14:09;18.50;99.90
5466;DHT22;2755;50.728;7.108;2023-07-29T06:19:00;18.80;99.90
5466;DHT22;2755;50.728;7.108;2023-07-29T06:21:26;18.90;99.90
5466;DHT22;2755;50.728;7.108;2023-07-29T06:28:44;19.10;99.90
5466;DHT22;2755;50.728;7.108;2023-07-29T06:31:09;18.90;99.90
5466;DHT22;2755;50.728;7.108;2023-07-29T06:33:35;18.90;99.90
5466;DHT22;2755;50.728;7.108;2023-07-29T06:36:01;19.10;99.90
5466;DHT22;2755;50.728;7.108;2023-07-29T06:40:53;19.10;99.90
5466;DHT22;2755;50.728;7.108;2023-07-29T06:43:18;19.10;99.90
5466;DHT22;2755;50.728;7.108;2023-07-29T06:53:02;18.60;99.90
5466;DHT22;2755;50.728;7.108;2023-07-29T06:55:28;19.20;99.90
5466;DHT22;2755;50.728;7.108;2023-07-29T06:57:53;19.00;99.90
5466;DHT22;2755;50.728;7.108;2023-07-29T07:02:45;19.40;99.90
5466;DHT22;2755;50.728;7.108;2023-07-29T07:05:10;19.30;99.90
5466;DHT22;2755;50.728;7.108;2023-07-29T07:07:36;20.40;99.90
5466;DHT22;2755;50.728;7.108;2023-07-29T07:10:03;20.60;99.90
5466;DHT22;2755;50.728;7.108;2023-07-29T07:12:29;20.40;99.90
5466;DHT22;2755;50.728;7.108;2023-07-29T07:14:54;20.20;99.90
5466;DHT22;2755;50.728;7.108;2023-07-29T07:17:20;20.90;99.90
5466;DHT22;2755;50.728;7.108;2023-07-29T07:19:45;20.50;99.90
5466;DHT22;2755;50.728;7.108;2023-07-29T07:22:11;20.50;99.90
5466;DHT22;2755;50.728;7.108;2023-07-29T07:24:37;20.20;99.90
5466;DHT22;2755;50.728;7.108;2023-07-29T07:27:03;20.20;99.90
5466;DHT22;2755;50.728;7.108;2023-07-29T07:29:28;20.20;99.90
5466;DHT22;2755;50.728;7.108;2023-07-29T07:31:56;20.20;99.90
5466;DHT22;2755;50.728;7.108;2023-07-29T07:34:22;20.30;99.90
5466;DHT22;2755;50.728;7.108;2023-07-29T07:39:14;20.20;99.90
5466;DHT22;2755;50.728;7.108;2023-07-29T07:41:43;20.50;99.90
5466;DHT22;2755;50.728;7.108;2023-07-29T07:44:09;19.20;99.90
5466;DHT22;2755;50.728;7.108;2023-07-29T07:51:26;21.10;99.90
5466;DHT22;2755;50.728;7.108;2023-07-29T07:53:52;21.10;99.90
5466;DHT22;2755;50.728;7.108;2023-07-29T07:56:17;21.20;97.00
5466;DHT22;2755;50.728;7.108;2023-07-29T08:01:09;22.00;94.40
5466;DHT22;2755;50.728;7.108;2023-07-29T08:03:35;22.60;91.60
5466;DHT22;2755;50.728;7.108;2023-07-29T08:06:02;22.20;80.70
5466;DHT22;2755;50.728;7.108;2023-07-29T08:08:28;22.60;70.60
5466;DHT22;2755;50.728;7.108;2023-07-29T08:10:54;20.90;60.90
5466;DHT22;2755;50.728;7.108;2023-07-29T08:13:22;22.60;61.90
5466;DHT22;2755;50.728;7.108;2023-07-29T08:15:49;22.80;59.50
5466;DHT22;2755;50.728;7.108;2023-07-29T08:18:15;21.70;62.10
5466;DHT22;2755;50.728;7.108;2023-07-29T08:20:41;22.20;62.20
5466;DHT22;2755;50.728;7.108;2023-07-29T08:23:07;21.90;54.50
5466;DHT22;2755;50.728;7.108;2023-07-29T08:25:32;21.60;59.30
5466;DHT22;2755;50.728;7.108;2023-07-29T08:27:58;21.90;59.60
5466;DHT22;2755;50.728;7.108;2023-07-29T08:32:49;22.10;50.30
5466;DHT22;2755;50.728;7.108;2023-07-29T08:35:15;22.00;53.60
5466;DHT22;2755;50.728;7.108;2023-07-29T08:40:07;22.70;50.80
5466;DHT22;2755;50.728;7.108;2023-07-29T08:42:33;22.60;42.80
5466;DHT22;2755;50.728;7.108;2023-07-29T08:45:07;22.70;34.60
5466;DHT22;2755;50.728;7.108;2023-07-29T08:47:37;22.50;33.00
5466;DHT22;2755;50.728;7.108;2023-07-29T08:50:03;22.50;35.00
5466;DHT22;2755;50.728;7.108;2023-07-29T08:52:29;21.80;32.20
5466;DHT22;2755;50.728;7.108;2023-07-29T08:54:57;22.10;36.40
5466;DHT22;2755;50.728;7.108;2023-07-29T08:57:23;21.50;35.30
5466;DHT22;2755;50.728;7.108;2023-07-29T08:59:49;22.60;38.00
5466;DHT22;2755;50.728;7.108;2023-07-29T09:07:07;21.20;40.90
5466;DHT22;2755;50.728;7.108;2023-07-29T09:11:59;21.10;46.40
5466;DHT22;2755;50.728;7.108;2023-07-29T09:14:25;20.60;46.30
5466;DHT22;2755;50.728;7.108;2023-07-29T09:16:50;20.50;49.60
5466;DHT22;2755;50.728;7.108;2023-07-29T09:19:16;20.50;49.80
5466;DHT22;2755;50.728;7.108;2023-07-29T09:21:42;20.60;51.40
5466;DHT22;2755;50.728;7.108;2023-07-29T09:24:08;20.30;54.00
5466;DHT22;2755;50.728;7.108;2023-07-29T09:26:35;21.40;53.00
5466;DHT22;2755;50.728;7.108;2023-07-29T09:29:01;20.50;51.60
5466;DHT22;2755;50.728;7.108;2023-07-29T09:31:27;21.50;53.50
5466;DHT22;2755;50.728;7.108;2023-07-29T09:34:03;20.70;53.50
5466;DHT22;2755;50.728;7.108;2023-07-29T09:36:33;20.40;55.70
5466;DHT22;2755;50.728;7.108;2023-07-29T09:41:26;20.60;52.80
5466;DHT22;2755;50.728;7.108;2023-07-29T09:44:02;21.10;52.00
5466;DHT22;2755;50.728;7.108;2023-07-29T09:46:34;21.00;53.20
5466;DHT22;2755;50.728;7.108;2023-07-29T09:49:01;20.60;46.10
5466;DHT22;2755;50.728;7.108;2023-07-29T09:56:26;21.00;42.30
5466;DHT22;2755;50.728;7.108;2023-07-29T09:58:57;20.90;45.50
5466;DHT22;2755;50.728;7.108;2023-07-29T10:01:23;20.80;44.80
5466;DHT22;2755;50.728;7.108;2023-07-29T10:06:15;21.10;45.30
5466;DHT22;2755;50.728;7.108;2023-07-29T10:08:43;19.60;47.60
5466;DHT22;2755;50.728;7.108;2023-07-29T10:11:10;20.80;54.80
5466;DHT22;2755;50.728;7.108;2023-07-29T10:13:37;21.50;51.90
5466;DHT22;2755;50.728;7.108;2023-07-29T10:16:03;21.10;52.50
5466;DHT22;2755;50.728;7.108;2023-07-29T10:18:31;21.10;55.70
5466;DHT22;2755;50.728;7.108;2023-07-29T10:20:58;20.40;55.90
5466;DHT22;2755;50.728;7.108;2023-07-29T10:23:28;20.50;55.30
5466;DHT22;2755;50.728;7.108;2023-07-29T10:26:03;20.90;52.10
5466;DHT22;2755;50.728;7.108;2023-07-29T10:28:30;20.60;55.40
5466;DHT22;2755;50.728;7.108;2023-07-29T10:30:59;20.20;56.00
5466;DHT22;2755;50.728;7.108;2023-07-29T10:33:25;20.10;57.50
5466;DHT22;2755;50.728;7.108;2023-07-29T10:35:52;18.60;62.90
5466;DHT22;2755;50.728;7.108;2023-07-29T10:38:22;20.00;66.90
5466;DHT22;2755;50.728;7.108;2023-07-29T10:43:33;19.70;80.20
5466;DHT22;2755;50.728;7.108;2023-07-29T10:46:21;19.70;84.70
5466;DHT22;2755;50.728;7.108;2023-07-29T10:51:23;19.40;90.40
5466;DHT22;2755;50.728;7.108;2023-07-29T10:53:57;19.30;93.90
5466;DHT22;2755;50.728;7.108;2023-07-29T10:56:31;19.60;95.70
5466;DHT22;2755;50.728;7.108;2023-07-29T10:59:44;20.10;99.90
5466;DHT22;2755;50.728;7.108;2023-07-29T11:01:54;19.40;99.90
5466;DHT22;2755;50.728;7.108;2023-07-29T11:09:51;18.80;99.90
5466;DHT22;2755;50.728;7.108;2023-07-29T11:17:58;19.70;99.90
5466;DHT22;2755;50.728;7.108;2023-07-29T11:20:29;20.00;99.90
5466;DHT22;2755;50.728;7.108;2023-07-29T11:22:56;20.30;99.90
5466;DHT22;2755;50.728;7.108;2023-07-29T11:25:23;20.40;99.90
5466;DHT22;2755;50.728;7.108;2023-07-29T11:27:53;20.30;99.90
5466;DHT22;2755;50.728;7.108;2023-07-29T11:32:45;21.00;99.90
5466;DHT22;2755;50.728;7.108;2023-07-29T11:35:16;20.50;99.90
5466;DHT22;2755;50.728;7.108;2023-07-29T11:37:47;20.50;99.90
5466;DHT22;2755;50.728;7.108;2023-07-29T11:40:20;20.60;99.90
5466;DHT22;2755;50.728;7.108;2023-07-29T11:42:47;20.20;99.90
5466;DHT22;2755;50.728;7.108;2023-07-29T11:45:14;20.10;99.90
5466;DHT22;2755;50.728;7.108;2023-07-29T11:47:40;20.10;99.90
5466;DHT22;2755;50.728;7.108;2023-07-29T11:50:10;20.90;99.90
5466;DHT22;2755;50.728;7.108;2023-07-29T11:52:37;20.40;99.90
5466;DHT22;2755;50.728;7.108;2023-07-29T11:55:04;21.00;99.90
5466;DHT22;2755;50.728;7.108;2023-07-29T11:57:31;20.50;99.90
5466;DHT22;2755;50.728;7.108;2023-07-29T12:04:52;21.00;99.90
5466;DHT22;2755;50.728;7.108;2023-07-29T12:07:18;20.20;99.90
5466;DHT22;2755;50.728;7.108;2023-07-29T12:09:45;21.50;99.90
5466;DHT22;2755;50.728;7.108;2023-07-29T12:12:11;22.10;99.90
5466;DHT22;2755;50.728;7.108;2023-07-29T12:14:37;22.40;99.90
5466;DHT22;2755;50.728;7.108;2023-07-29T12:17:05;23.10;99.70
5466;DHT22;2755;50.728;7.108;2023-07-29T12:19:32;23.80;94.90
5466;DHT22;2755;50.728;7.108;2023-07-29T12:21:59;24.80;70.00
5466;DHT22;2755;50.728;7.108;2023-07-29T12:24:25;24.10;54.50
5466;DHT22;2755;50.728;7.108;2023-07-29T12:29:18;25.50;33.20
5466;DHT22;2755;50.728;7.108;2023-07-29T12:31:47;24.80;21.20
5466;DHT22;2755;50.728;7.108;2023-07-29T12:34:20;24.60;29.80
5466;DHT22;2755;50.728;7.108;2023-07-29T12:36:48;25.30;29.90
5466;DHT22;2755;50.728;7.108;2023-07-29T12:39:28;25.10;16.90
5466;DHT22;2755;50.728;7.108;2023-07-29T12:41:55;25.20;21.60
5466;DHT22;2755;50.728;7.108;2023-07-29T12:44:23;25.40;15.50
5466;DHT22;2755;50.728;7.108;2023-07-29T12:46:49;25.60;13.30
5466;DHT22;2755;50.728;7.108;2023-07-29T12:49:14;26.00;14.00
5466;DHT22;2755;50.728;7.108;2023-07-29T12:51:40;26.50;17.30
5466;DHT22;2755;50.728;7.108;2023-07-29T12:54:06;27.10;6.50
5466;DHT22;2755;50.728;7.108;2023-07-29T12:56:32;27.50;5.70
5466;DHT22;2755;50.728;7.108;2023-07-29T12:58:59;28.20;2.40
5466;DHT22;2755;50.728;7.108;2023-07-29T13:03:51;29.20;1.00
5466;DHT22;2755;50.728;7.108;2023-07-29T13:06:16;29.70;1.00
5466;DHT22;2755;50.728;7.108;2023-07-29T13:08:43;29.60;1.00
5466;DHT22;2755;50.728;7.108;2023-07-29T13:11:09;28.10;1.00
5466;DHT22;2755;50.728;7.108;2023-07-29T13:13:34;29.50;1.00
5466;DHT22;2755;50.728;7.108;2023-07-29T13:18:26;28.00;1.00
5466;DHT22;2755;50.728;7.108;2023-07-29T13:20:52;26.70;1.00
5466;DHT22;2755;50.728;7.108;2023-07-29T13:23:18;26.50;1.00
5466;DHT22;2755;50.728;7.108;2023-07-29T13:25:43;25.40;1.00
5466;DHT22;2755;50.728;7.108;2023-07-29T13:28:10;25.10;1.00
5466;DHT22;2755;50.728;7.108;2023-07-29T13:30:36;23.20;1.60
5466;DHT22;2755;50.728;7.108;2023-07-29T13:33:01;24.60;5.40
5466;DHT22;2755;50.728;7.108;2023-07-29T13:35:27;24.10;5.40
5466;DHT22;2755;50.728;7.108;2023-07-29T13:37:53;23.30;7.00
5466;DHT22;2755;50.728;7.108;2023-07-29T13:42:45;22.50;11.50
5466;DHT22;2755;50.728;7.108;2023-07-29T13:45:11;22.00;13.30
5466;DHT22;2755;50.728;7.108;2023-07-29T13:47:36;22.40;17.30
5466;DHT22;2755;50.728;7.108;2023-07-29T13:50:02;21.60;21.20
5466;DHT22;2755;50.728;7.108;2023-07-29T14:02:13;21.50;22.90
5466;DHT22;2755;50.728;7.108;2023-07-29T14:07:05;21.50;21.60
5466;DHT22;2755;50.728;7.108;2023-07-29T14:09:30;21.40;22.80
5466;DHT22;2755;50.728;7.108;2023-07-29T14:11:56;21.40;24.40
5466;DHT22;2755;50.728;7.108;2023-07-29T14:19:14;21.60;28.10
5466;DHT22;2755;50.728;7.108;2023-07-29T14:24:06;21.70;28.60
5466;DHT22;2755;50.728;7.108;2023-07-29T14:31:23;21.60;32.60
5466;DHT22;2755;50.728;7.108;2023-07-29T14:33:49;21.40;32.70
5466;DHT22;2755;50.728;7.108;2023-07-29T14:36:15;21.80;32.80
5466;DHT22;2755;50.728;7.108;2023-07-29T14:38:41;21.60;33.30
5466;DHT22;2755;50.728;7.108;2023-07-29T14:41:07;21.50;37.40
5466;DHT22;2755;50.728;7.108;2023-07-29T14:43:33;21.40;37.50
5466;DHT22;2755;50.728;7.108;2023-07-29T14:45:59;21.50;39.10
5466;DHT22;2755;50.728;7.108;2023-07-29T14:50:50;21.50;36.80
5466;DHT22;2755;50.728;7.108;2023-07-29T14:53:16;21.80;32.60
5466;DHT22;2755;50.728;7.108;2023-07-29T14:55:41;21.80;32.50
5466;DHT22;2755;50.728;7.108;2023-07-29T15:05:25;21.80;32.90
5466;DHT22;2755;50.728;7.108;2023-07-29T15:12:46;21.30;36.50
5466;DHT22;2755;50.728;7.108;2023-07-29T15:15:11;21.00;32.30
5466;DHT22;2755;50.728;7.108;2023-07-29T15:17:37;20.70;34.10
5466;DHT22;2755;50.728;7.108;2023-07-29T15:22:30;20.70;36.10
5466;DHT22;2755;50.728;7.108;2023-07-29T15:24:57;20.70;36.60
5466;DHT22;2755;50.728;7.108;2023-07-29T15:27:24;21.00;37.00
5466;DHT22;2755;50.728;7.108;2023-07-29T15:29:50;20.50;37.10
5466;DHT22;2755;50.728;7.108;2023-07-29T15:37:07;21.20;39.80
5466;DHT22;2755;50.728;7.108;2023-07-29T15:39:33;21.10;34.30
5466;DHT22;2755;50.728;7.108;2023-07-29T15:41:59;21.20;33.00
5466;DHT22;2755;50.728;7.108;2023-07-29T15:44:24;19.70;31.90
5466;DHT22;2755;50.728;7.108;2023-07-29T15:46:50;20.80;36.80
5466;DHT22;2755;50.728;7.108;2023-07-29T15:49:17;20.30;35.10
5466;DHT22;2755;50.728;7.108;2023-07-29T15:54:09;20.00;47.60
5466;DHT22;2755;50.728;7.108;2023-07-29T15:56:34;19.90;49.70
5466;DHT22;2755;50.728;7.108;2023-07-29T15:59:02;19.70;54.40
5466;DHT22;2755;50.728;7.108;2023-07-29T16:01:28;20.00;57.70
5466;DHT22;2755;50.728;7.108;2023-07-29T16:08:46;19.00;79.60
5466;DHT22;2755;50.728;7.108;2023-07-29T16:11:11;18.70;83.50
5466;DHT22;2755;50.728;7.108;2023-07-29T16:13:37;19.10;88.10
5466;DHT22;2755;50.728;7.108;2023-07-29T16:16:03;18.80;91.90
5466;DHT22;2755;50.728;7.108;2023-07-29T16:18:29;19.10;98.00
5466;DHT22;2755;50.728;7.108;2023-07-29T16:20:55;19.00;96.50
5466;DHT22;2755;50.728;7.108;2023-07-29T16:23:27;18.80;99.90
5466;DHT22;2755;50.728;7.108;2023-07-29T16:25:53;19.50;99.90
5466;DHT22;2755;50.728;7.108;2023-07-29T16:28:18;18.60;99.90
5466;DHT22;2755;50.728;7.108;2023-07-29T16:30:44;18.30;99.90
5466;DHT22;2755;50.728;7.108;2023-07-29T16:35:35;18.70;99.90
5466;DHT22;2755;50.728;7.108;2023-07-29T16:40:28;18.90;99.90
5466;DHT22;2755;50.728;7.108;2023-07-29T16:42:54;19.50;99.90
5466;DHT22;2755;50.728;7.108;2023-07-29T16:55:06;19.20;99.90
5466;DHT22;2755;50.728;7.108;2023-07-29T16:57:32;19.40;99.90
5466;DHT22;2755;50.728;7.108;2023-07-29T17:02:23;19.30;99.90
5466;DHT22;2755;50.728;7.108;2023-07-29T17:04:49;18.60;99.90
5466;DHT22;2755;50.728;7.108;2023-07-29T17:09:44;18.90;99.90
5466;DHT22;2755;50.728;7.108;2023-07-29T17:12:13;19.20;99.90
5466;DHT22;2755;50.728;7.108;2023-07-29T17:14:39;18.60;99.90
5466;DHT22;2755;50.728;7.108;2023-07-29T17:17:05;18.70;99.90
5466;DHT22;2755;50.728;7.108;2023-07-29T17:24:22;18.70;99.90
5466;DHT22;2755;50.728;7.108;2023-07-29T17:29:14;18.50;99.90
5466;DHT22;2755;50.728;7.108;2023-07-29T17:34:10;18.40;99.90
5466;DHT22;2755;50.728;7.108;2023-07-29T17:39:02;18.90;99.90
5466;DHT22;2755;50.728;7.108;2023-07-29T17:41:28;18.90;99.90
5466;DHT22;2755;50.728;7.108;2023-07-29T17:43:53;18.60;99.90
5466;DHT22;2755;50.728;7.108;2023-07-29T17:46:19;18.70;99.90
5466;DHT22;2755;50.728;7.108;2023-07-29T17:48:45;18.70;99.90
5466;DHT22;2755;50.728;7.108;2023-07-29T17:53:37;19.20;99.90
5466;DHT22;2755;50.728;7.108;2023-07-29T17:56:03;18.50;99.90
5466;DHT22;2755;50.728;7.108;2023-07-29T17:58:29;19.40;99.90
5466;DHT22;2755;50.728;7.108;2023-07-29T18:00:56;18.60;99.90
5466;DHT22;2755;50.728;7.108;2023-07-29T18:05:58;18.90;99.90
5466;DHT22;2755;50.728;7.108;2023-07-29T18:13:16;18.50;99.90
5466;DHT22;2755;50.728;7.108;2023-07-29T18:15:41;18.50;99.90
5466;DHT22;2755;50.728;7.108;2023-07-29T18:18:07;18.50;99.90
5466;DHT22;2755;50.728;7.108;2023-07-29T18:20:33;18.30;99.90
5466;DHT22;2755;50.728;7.108;2023-07-29T18:23:01;17.70;99.90
5466;DHT22;2755;50.728;7.108;2023-07-29T18:25:31;18.60;99.90
5466;DHT22;2755;50.728;7.108;2023-07-29T18:27:57;18.30;99.90
5466;DHT22;2755;50.728;7.108;2023-07-29T18:30:23;18.30;99.90
5466;DHT22;2755;50.728;7.108;2023-07-29T18:32:48;18.10;99.90
5466;DHT22;2755;50.728;7.108;2023-07-29T18:37:44;18.40;99.90
5466;DHT22;2755;50.728;7.108;2023-07-29T18:40:11;18.50;99.90
5466;DHT22;2755;50.728;7.108;2023-07-29T18:42:36;18.20;99.90
5466;DHT22;2755;50.728;7.108;2023-07-29T18:47:28;18.50;99.90
5466;DHT22;2755;50.728;7.108;2023-07-29T18:49:53;18.40;99.90
5466;DHT22;2755;50.728;7.108;2023-07-29T18:52:19;18.30;99.90
5466;DHT22;2755;50.728;7.108;2023-07-29T18:54:45;18.20;99.90
5466;DHT22;2755;50.728;7.108;2023-07-29T18:59:37;19.00;99.90
5466;DHT22;2755;50.728;7.108;2023-07-29T19:02:05;18.70;99.90
5466;DHT22;2755;50.728;7.108;2023-07-29T19:04:31;18.60;99.90
5466;DHT22;2755;50.728;7.108;2023-07-29T19:06:56;18.30;99.90
5466;DHT22;2755;50.728;7.108;2023-07-29T19:09:23;18.20;99.90
5466;DHT22;2755;50.728;7.108;2023-07-29T19:14:16;17.90;99.90
5466;DHT22;2755;50.728;7.108;2023-07-29T19:19:08;18.50;99.90
5466;DHT22;2755;50.728;7.108;2023-07-29T19:21:33;18.50;99.90
5466;DHT22;2755;50.728;7.108;2023-07-29T19:23:59;18.20;99.90
5466;DHT22;2755;50.728;7.108;2023-07-29T19:26:24;19.10;99.90
5466;DHT22;2755;50.728;7.108;2023-07-29T19:28:50;17.60;99.90
5466;DHT22;2755;50.728;7.108;2023-07-29T19:31:16;18.10;99.90
5466;DHT22;2755;50.728;7.108;2023-07-29T19:33:41;18.30;99.90
5466;DHT22;2755;50.728;7.108;2023-07-29T19:36:09;18.10;99.90
5466;DHT22;2755;50.728;7.108;2023-07-29T19:38:35;18.10;99.90
5466;DHT22;2755;50.728;7.108;2023-07-29T19:41:00;18.30;99.90
5466;DHT22;2755;50.728;7.108;2023-07-29T19:43:26;17.90;99.90
5466;DHT22;2755;50.728;7.108;2023-07-29T19:45:52;18.00;99.90
5466;DHT22;2755;50.728;7.108;2023-07-29T19:53:11;17.80;99.90
5466;DHT22;2755;50.728;7.108;2023-07-29T19:55:36;17.60;99.90
5466;DHT22;2755;50.728;7.108;2023-07-29T19:58:02;17.80;99.90
5466;DHT22;2755;50.728;7.108;2023-07-29T20:00:27;18.20;99.90
5466;DHT22;2755;50.728;7.108;2023-07-29T20:05:19;18.00;99.90
5466;DHT22;2755;50.728;7.108;2023-07-29T20:07:46;17.50;99.90
5466;DHT22;2755;50.728;7.108;2023-07-29T20:10:12;18.20;99.90
5466;DHT22;2755;50.728;7.108;2023-07-29T20:12:38;17.10;99.90
5466;DHT22;2755;50.728;7.108;2023-07-29T20:15:04;17.50;99.90
5466;DHT22;2755;50.728;7.108;2023-07-29T20:17:30;17.80;99.90
5466;DHT22;2755;50.728;7.108;2023-07-29T20:19:55;16.80;99.90
5466;DHT22;2755;50.728;7.108;2023-07-29T20:22:21;17.30;99.90
5466;DHT22;2755;50.728;7.108;2023-07-29T20:24:47;17.70;99.90
5466;DHT22;2755;50.728;7.108;2023-07-29T20:27:12;17.80;99.90
5466;DHT22;2755;50.728;7.108;2023-07-29T20:29:38;17.50;99.90
5466;DHT22;2755;50.728;7.108;2023-07-29T20:32:03;17.80;99.90
5466;DHT22;2755;50.728;7.108;2023-07-29T20:34:29;16.20;99.90